Time;durP1;ratioP1;P1;durP2;ratioP2;P2;SDS_P1;SDS_P2;PMS_P1;PMS_P2;Temp;Humidity;BMP_temperature;BMP_pressure;BME280_temperature;BME280_humidity;BME280_pressure;Samples;Min_cycle;Max_cycle;Signal;HPM_P1;HPM_P2
2023/03/03 00:01:46;;;;;;;20.00;13.40;;;;;;;1.93;74.92;99870.73;105366;1273;61589;-73
2023/03/03 00:04:15;;;;;;;18.40;12.00;;;;;;;1.89;75.00;99869.96;105440;1264;61104;-72
2023/03/03 00:06:44;;;;;;;19.50;12.30;;;;;;;1.85;75.24;99866.07;105391;1263;73192;-71
2023/03/03 00:09:12;;;;;;;19.30;13.50;;;;;;;1.81;75.30;99864.73;105449;1264;71585;-70
2023/03/03 00:11:44;;;;;;;19.30;12.80;;;;;;;1.77;75.32;99864.35;105289;1264;73621;-72
2023/03/03 00:14:27;;;;;;;21.60;14.00;;;;;;;1.71;75.48;99860.20;106168;1251;60484;-73
2023/03/03 00:16:56;;;;;;;17.30;12.90;;;;;;;1.80;75.30;99858.56;106249;1251;60342;-72
2023/03/03 00:19:24;;;;;;;21.00;14.50;;;;;;;1.85;75.37;99854.16;105886;1253;71808;-73
2023/03/03 00:21:53;;;;;;;22.60;14.70;;;;;;;1.80;75.60;99849.27;105966;1251;70573;-74
2023/03/03 00:24:23;;;;;;;21.00;13.70;;;;;;;1.74;75.65;99846.88;105762;1251;71859;-74
2023/03/03 00:26:54;;;;;;;19.60;13.90;;;;;;;1.68;75.66;99840.86;106168;1251;59830;-74
2023/03/03 00:29:26;;;;;;;22.20;14.10;;;;;;;1.61;75.96;99841.92;106197;1256;59912;-74
2023/03/03 00:31:54;;;;;;;17.60;12.70;;;;;;;1.55;75.94;99840.56;107041;1251;73340;-72
2023/03/03 00:34:25;;;;;;;18.00;12.10;;;;;;;1.60;75.91;99841.48;107937;1254;70085;-73
2023/03/03 00:36:55;;;;;;;16.60;11.80;;;;;;;1.68;75.89;99835.84;107884;1254;73629;-74
2023/03/03 00:39:35;;;;;;;18.20;12.60;;;;;;;1.63;76.01;99838.09;106444;1257;59640;-73
2023/03/03 00:42:14;;;;;;;19.10;12.10;;;;;;;1.58;76.05;99837.58;106421;1251;59576;-73
2023/03/03 00:44:52;;;;;;;19.00;13.10;;;;;;;1.51;76.10;99829.46;106220;1256;73327;-73
2023/03/03 00:47:36;;;;;;;19.60;11.80;;;;;;;1.46;76.24;99828.13;106026;1251;69467;-73
2023/03/03 00:50:06;;;;;;;16.50;10.60;;;;;;;1.45;76.53;99826.11;106140;1251;71328;-71
2023/03/03 00:52:37;;;;;;;17.70;11.70;;;;;;;1.54;76.31;99821.65;106215;1251;59545;-73
2023/03/03 00:55:07;;;;;;;16.50;11.10;;;;;;;1.52;76.22;99819.30;106257;1255;59204;-70
2023/03/03 00:57:39;;;;;;;;;;;;;;;1.46;76.57;99813.81;106016;1256;73561;-71
2023/03/03 01:00:10;;;;;;;17.60;12.10;;;;;;;1.39;76.63;99811.33;106510;1257;71854;-72
2023/03/03 01:02:39;;;;;;;21.30;13.10;;;;;;;1.32;76.85;99804.65;106710;1251;71606;-72
2023/03/03 01:05:08;;;;;;;17.70;12.00;;;;;;;1.27;77.13;99807.41;106452;1254;59889;-69
2023/03/03 01:07:36;;;;;;;17.00;11.70;;;;;;;1.31;77.09;99801.76;106206;1258;62019;-72
2023/03/03 01:10:05;;;;;;;17.40;11.30;;;;;;;1.42;76.86;99797.52;106266;1251;73738;-73
2023/03/03 01:12:36;;;;;;;18.70;11.50;;;;;;;1.42;76.93;99801.36;106695;1251;70033;-75
2023/03/03 01:15:08;;;;;;;16.80;11.00;;;;;;;1.35;76.91;99794.80;106151;1254;71523;-71
2023/03/03 01:17:39;;;;;;;14.60;10.80;;;;;;;1.32;77.20;99795.06;106207;1254;61144;-72
2023/03/03 01:20:09;;;;;;;18.30;12.20;;;;;;;1.27;77.16;99794.02;106167;1251;60265;-74
2023/03/03 01:22:37;;;;;;;18.20;10.40;;;;;;;1.23;77.30;99789.59;106618;1256;72151;-74
2023/03/03 01:25:06;;;;;;;16.60;11.30;;;;;;;1.31;77.32;99789.88;106320;1251;70392;-75
2023/03/03 01:27:35;;;;;;;18.40;11.80;;;;;;;1.34;77.38;99785.45;106381;1251;70331;-72
2023/03/03 01:30:05;;;;;;;16.50;11.00;;;;;;;1.30;77.34;99783.86;106195;1251;59946;-71
2023/03/03 01:32:34;;;;;;;17.40;11.50;;;;;;;1.27;77.56;99781.14;106166;1256;59420;-72
2023/03/03 01:35:03;;;;;;;17.00;11.20;;;;;;;1.22;77.44;99781.77;106127;1254;73121;-74
2023/03/03 01:37:35;;;;;;;15.90;10.90;;;;;;;1.18;77.63;99778.74;107796;1254;70441;-73
2023/03/03 01:40:05;;;;;;;16.00;11.30;;;;;;;1.25;77.50;99773.60;108059;1254;72058;-71
2023/03/03 01:42:33;;;;;;;18.90;12.10;;;;;;;1.30;77.23;99766.58;106343;1254;59557;-68
2023/03/03 01:45:52;;;;;;;18.40;11.90;;;;;;;1.27;77.37;99765.93;106211;1256;60994;-71
2023/03/03 01:48:33;;;;;;;18.10;12.70;;;;;;;1.22;77.66;99767.52;106031;1254;74378;-72
2023/03/03 01:51:02;;;;;;;22.70;13.30;;;;;;;1.17;77.70;99768.70;106186;1254;69359;-70
2023/03/03 01:53:40;;;;;;;26.80;13.50;;;;;;;1.13;77.75;99764.58;106000;1256;72818;-70
2023/03/03 01:56:09;;;;;;;20.80;12.10;;;;;;;1.17;77.81;99757.92;106158;1254;61460;-71
2023/03/03 01:58:44;;;;;;;22.00;13.50;;;;;;;1.28;77.54;99758.18;106201;1254;62983;-71
2023/03/03 02:01:16;;;;;;;23.80;12.80;;;;;;;1.28;77.49;99754.33;106198;1256;72914;-72
2023/03/03 02:03:44;;;;;;;23.00;13.30;;;;;;;1.23;77.68;99752.73;106078;1256;71027;-72
2023/03/03 02:06:16;;;;;;;22.40;13.80;;;;;;;1.17;77.82;99750.23;106208;1254;72028;-70
2023/03/03 02:09:01;;;;;;;24.20;14.70;;;;;;;1.13;77.98;99750.51;106434;1256;59930;-73
2023/03/03 02:11:31;;;;;;;25.90;13.70;;;;;;;1.10;78.13;99747.03;106356;1254;59964;-74
2023/03/03 02:13:59;;;;;;;25.40;14.30;;;;;;;1.20;78.02;99748.81;106448;1252;74237;-72
2023/03/03 02:16:28;;;;;;;22.20;14.30;;;;;;;1.22;77.86;99747.08;106134;1253;70325;-73
2023/03/03 02:18:56;;;;;;;20.70;12.60;;;;;;;1.18;77.88;99746.15;106155;1253;72980;-70
2023/03/03 02:21:27;;;;;;;18.80;11.60;;;;;;;1.14;77.99;99742.20;106247;1254;60102;-70
2023/03/03 02:24:12;;;;;;;16.70;10.70;;;;;;;1.12;78.16;99742.91;106213;1256;61507;-72
2023/03/03 02:26:40;;;;;;;22.40;11.50;;;;;;;1.13;78.15;99742.13;105776;1260;72241;-70
2023/03/03 02:29:09;;;;;;;17.80;10.90;;;;;;;1.26;77.95;99738.21;106092;1256;70485;-70
2023/03/03 02:31:38;;;;;;;14.00;9.20;;;;;;;1.30;77.81;99736.93;106256;1257;72529;-73
2023/03/03 02:34:07;;;;;;;16.50;9.80;;;;;;;1.26;77.83;99736.83;106286;1256;60848;-73
2023/03/03 02:36:37;;;;;;;16.50;9.50;;;;;;;1.22;77.95;99733.66;106322;1256;60521;-73
2023/03/03 02:39:23;;;;;;;13.50;9.50;;;;;;;1.17;77.96;99731.71;107079;1257;73748;-74
2023/03/03 02:42:18;;;;;;;16.70;10.30;;;;;;;1.16;77.99;99729.54;107449;1254;70228;-72
2023/03/03 02:44:54;;;;;;;16.90;10.80;;;;;;;1.29;77.68;99731.76;107332;1251;72620;-74
2023/03/03 02:47:24;;;;;;;15.60;10.20;;;;;;;1.31;77.74;99733.16;106816;1254;59799;-74
2023/03/03 02:50:00;;;;;;;14.30;10.30;;;;;;;1.29;77.94;99726.90;106970;1254;61361;-73
2023/03/03 02:52:28;;;;;;;18.20;10.90;;;;;;;1.24;78.00;99724.77;106992;1252;72141;-75
2023/03/03 02:54:56;;;;;;;17.70;11.30;;;;;;;1.19;78.05;99720.94;106985;1251;67971;-71
2023/03/03 02:57:25;;;;;;;15.60;10.30;;;;;;;1.16;78.24;99720.61;106471;1255;72917;-72
2023/03/03 02:59:54;;;;;;;13.80;9.10;;;;;;;1.25;78.15;99718.92;106437;1251;61424;-74
2023/03/03 03:02:22;;;;;;;13.80;9.40;;;;;;;1.30;78.06;99720.33;106430;1258;59964;-74
2023/03/03 03:04:50;;;;;;;14.20;8.90;;;;;;;1.25;78.22;99718.06;106432;1254;72957;-72
2023/03/03 03:07:28;;;;;;;17.10;10.40;;;;;;;1.18;78.52;99715.80;106453;1254;71060;-73
2023/03/03 03:09:57;;;;;;;16.30;9.90;;;;;;;1.11;78.82;99713.99;106622;1254;71648;-73
2023/03/03 03:12:26;;;;;;;13.60;9.20;;;;;;;1.08;78.86;99714.39;106747;1257;59924;-72
2023/03/03 03:14:54;;;;;;;12.90;9.30;;;;;;;1.16;78.58;99715.59;106281;1251;60989;-75
2023/03/03 03:17:23;;;;;;;17.10;9.40;;;;;;;1.22;78.63;99715.14;106641;1256;73998;-75
2023/03/03 03:19:52;;;;;;;16.50;9.90;;;;;;;1.17;78.73;99707.81;106754;1251;70313;-73
2023/03/03 03:22:20;;;;;;;17.80;11.50;;;;;;;1.16;78.81;99711.21;106846;1256;72139;-73
2023/03/03 03:24:49;;;;;;;14.40;9.70;;;;;;;1.10;78.92;99710.56;106671;1251;60470;-73
2023/03/03 03:27:18;;;;;;;15.10;9.90;;;;;;;1.07;78.93;99706.77;106880;1260;59631;-74
2023/03/03 03:29:50;;;;;;;14.30;9.20;;;;;;;1.20;78.79;99705.88;106563;1256;72435;-73
2023/03/03 03:32:19;;;;;;;13.70;9.50;;;;;;;1.31;78.52;99702.33;106797;1252;69126;-72
2023/03/03 03:34:47;;;;;;;13.10;8.90;;;;;;;1.29;78.39;99693.39;106501;1251;73775;-74
2023/03/03 03:37:21;;;;;;;;;;;;;;;1.25;78.55;99694.71;106342;1255;59595;-76
2023/03/03 03:39:57;;;;;;;14.50;9.90;;;;;;;1.19;78.76;99690.04;106874;1256;60296;-72
2023/03/03 03:42:26;;;;;;;13.00;8.70;;;;;;;1.16;78.70;99690.11;108468;1251;72011;-74
2023/03/03 03:44:57;;;;;;;15.80;8.50;;;;;;;1.24;78.52;99681.48;109098;1251;70156;-75
2023/03/03 03:47:26;;;;;;;14.20;8.50;;;;;;;1.37;78.23;99682.64;109218;1251;70641;-76
2023/03/03 03:49:56;;;;;;;15.40;9.60;;;;;;;1.36;78.23;99680.45;108424;1256;60417;-74
2023/03/03 03:52:25;;;;;;;12.40;8.90;;;;;;;1.34;78.41;99680.63;109350;1251;59992;-71
2023/03/03 03:54:54;;;;;;;14.50;10.50;;;;;;;1.32;78.33;99678.11;109638;1256;72790;-73
2023/03/03 03:57:22;;;;;;;17.30;11.10;;;;;;;1.29;78.36;99678.50;108480;1251;69101;-72
2023/03/03 04:00:14;;;;;;;12.40;8.50;;;;;;;1.29;78.26;99675.40;108616;1251;74011;-74
2023/03/03 04:02:44;;;;;;;15.50;10.10;;;;;;;1.41;78.03;99671.25;108210;1257;60582;-73
2023/03/03 04:05:14;;;;;;;14.30;9.90;;;;;;;1.44;77.97;99669.61;108565;1254;59071;-72
2023/03/03 04:07:43;;;;;;;15.80;10.00;;;;;;;1.41;77.92;99669.48;109488;1251;73906;-74
2023/03/03 04:10:11;;;;;;;16.30;11.10;;;;;;;1.36;77.88;99666.13;109286;1251;69406;-74
2023/03/03 04:12:41;;;;;;;16.50;10.90;;;;;;;1.34;78.05;99665.08;109672;1251;70191;-72
2023/03/03 04:15:14;;;;;;;15.50;9.40;;;;;;;1.32;78.05;99665.23;109475;1251;60832;-74
2023/03/03 04:17:44;;;;;;;16.00;10.30;;;;;;;1.40;77.91;99659.55;109425;1251;59807;-73
2023/03/03 04:20:14;;;;;;;14.50;9.90;;;;;;;1.44;77.71;99656.67;109405;1251;71650;-72
2023/03/03 04:22:44;;;;;;;15.40;10.30;;;;;;;1.38;77.78;99653.62;109406;1251;69665;-73
2023/03/03 04:25:15;;;;;;;17.30;10.20;;;;;;;1.30;77.98;99651.04;109015;1253;72676;-73
2023/03/03 04:27:51;;;;;;;15.90;9.90;;;;;;;1.27;78.17;99652.48;109011;1251;59742;-73
2023/03/03 04:30:22;;;;;;;15.80;10.70;;;;;;;1.27;78.11;99647.63;107623;1256;59870;-72
2023/03/03 04:32:52;;;;;;;16.60;10.50;;;;;;;1.28;78.16;99643.52;105819;1251;72884;-73
2023/03/03 04:35:22;;;;;;;22.30;13.20;;;;;;;1.39;77.82;99638.23;106170;1251;69930;-70
2023/03/03 04:37:50;;;;;;;18.20;11.30;;;;;;;1.41;77.93;99636.64;105668;1259;73013;-73
2023/03/03 04:40:19;;;;;;;19.60;11.70;;;;;;;1.35;77.91;99634.45;105997;1257;60478;-69
2023/03/03 04:42:48;;;;;;;18.50;11.50;;;;;;;1.31;77.93;99632.63;105920;1251;61305;-70
2023/03/03 04:45:22;;;;;;;;;;;;;;;1.27;78.02;99631.86;106625;1256;72578;-73
2023/03/03 04:47:51;;;;;;;19.10;10.10;;;;;;;1.22;78.15;99629.13;108270;1256;70380;-72
2023/03/03 04:50:24;;;;;;;20.40;13.40;;;;;;;1.29;78.05;99629.64;106771;1256;72663;-70
2023/03/03 04:52:54;;;;;;;23.60;14.60;;;;;;;1.29;77.96;99631.24;106347;1256;60476;-73
2023/03/03 04:55:22;;;;;;;20.10;13.80;;;;;;;1.25;78.25;99631.92;106279;1251;60336;-74
2023/03/03 04:57:51;;;;;;;27.00;16.40;;;;;;;1.17;78.33;99632.80;105986;1256;74846;-76
2023/03/03 05:00:21;;;;;;;24.50;15.50;;;;;;;1.13;78.53;99635.20;105862;1260;70569;-78
2023/03/03 05:02:49;;;;;;;26.90;16.70;;;;;;;1.21;78.46;99629.05;106129;1255;73814;-74
2023/03/03 05:05:19;;;;;;;24.80;16.50;;;;;;;1.21;78.46;99625.34;106103;1256;60520;-76
2023/03/03 05:07:48;;;;;;;27.20;17.10;;;;;;;1.17;78.54;99628.27;106050;1256;60436;-75
2023/03/03 05:10:16;;;;;;;21.20;14.90;;;;;;;1.14;78.66;99632.69;107168;1251;73157;-74
2023/03/03 05:12:45;;;;;;;23.90;15.20;;;;;;;1.10;78.77;99637.65;107159;1255;71528;-74
2023/03/03 05:15:18;;;;;;;24.30;16.90;;;;;;;1.20;78.59;99639.40;106465;1257;71919;-73
2023/03/03 05:17:47;;;;;;;24.90;15.90;;;;;;;1.25;78.51;99635.56;106399;1251;60505;-72
2023/03/03 05:20:19;;;;;;;19.20;14.20;;;;;;;1.21;78.65;99632.19;106053;1257;61369;-72
2023/03/03 05:22:50;;;;;;;20.90;14.20;;;;;;;1.16;78.82;99632.71;106437;1255;74086;-72
2023/03/03 05:25:18;;;;;;;21.30;14.70;;;;;;;1.12;79.01;99635.23;106466;1257;69896;-73
2023/03/03 05:27:46;;;;;;;18.30;13.10;;;;;;;1.21;79.07;99631.66;106370;1256;73534;-73
2023/03/03 05:30:15;;;;;;;22.30;15.20;;;;;;;1.25;79.05;99627.02;106442;1256;60539;-69
2023/03/03 05:32:45;;;;;;;16.80;13.20;;;;;;;1.20;79.15;99626.67;107306;1252;60475;-71
2023/03/03 05:35:14;;;;;;;17.00;12.90;;;;;;;1.15;79.54;99628.95;106640;1256;74122;-71
2023/03/03 05:37:46;;;;;;;19.40;13.10;;;;;;;1.14;79.83;99626.39;106591;1255;69808;-71
2023/03/03 05:40:14;;;;;;;15.90;11.90;;;;;;;1.21;79.52;99620.31;106432;1257;74055;-72
2023/03/03 05:42:43;;;;;;;20.90;12.60;;;;;;;1.20;79.49;99618.31;106099;1256;60424;-69
2023/03/03 05:45:12;;;;;;;19.90;12.60;;;;;;;1.17;79.65;99620.97;106357;1257;60358;-73
2023/03/03 05:47:40;;;;;;;20.70;12.60;;;;;;;1.14;79.72;99616.96;107186;1252;75050;-70
2023/03/03 05:50:11;;;;;;;18.20;12.20;;;;;;;1.22;79.61;99609.07;107724;1256;71631;-73
2023/03/03 05:52:39;;;;;;;20.00;13.00;;;;;;;1.31;79.37;99610.12;106603;1251;71602;-72
2023/03/03 05:55:10;;;;;;;21.90;14.90;;;;;;;1.29;79.31;99611.39;106185;1257;60385;-71
2023/03/03 05:57:38;;;;;;;19.60;13.10;;;;;;;1.25;79.41;99610.40;106105;1251;60497;-73
2023/03/03 06:00:10;;;;;;;17.00;11.40;;;;;;;1.25;79.35;99607.96;106087;1256;73923;-70
2023/03/03 06:02:42;;;;;;;18.20;12.40;;;;;;;1.34;79.08;99607.65;106106;1256;68110;-70
2023/03/03 06:05:11;;;;;;;18.30;11.90;;;;;;;1.42;79.05;99603.77;105863;1257;72451;-68
2023/03/03 06:07:44;;;;;;;19.80;12.60;;;;;;;1.43;79.09;99605.95;105905;1255;60543;-69
2023/03/03 06:10:13;;;;;;;18.20;12.70;;;;;;;1.41;78.98;99607.16;105885;1256;61334;-70
2023/03/03 06:12:45;;;;;;;20.90;12.50;;;;;;;1.42;78.98;99602.19;106039;1257;73932;-70
2023/03/03 06:15:13;;;;;;;20.90;12.00;;;;;;;1.54;78.85;99605.69;105759;1257;71557;-70
2023/03/03 06:17:42;;;;;;;21.70;12.40;;;;;;;1.57;78.52;99599.86;105719;1256;72995;-69
2023/03/03 06:20:11;;;;;;;17.60;12.20;;;;;;;1.55;78.62;99600.90;105736;1255;60420;-69
2023/03/03 06:22:40;;;;;;;23.50;12.20;;;;;;;1.52;78.67;99606.55;105594;1257;61516;-70
2023/03/03 06:25:10;;;;;;;19.20;11.60;;;;;;;1.55;78.56;99602.48;105784;1257;75040;-69
2023/03/03 06:27:41;;;;;;;17.90;12.10;;;;;;;1.62;78.39;99601.92;106008;1257;69993;-69
2023/03/03 06:30:11;;;;;;;18.60;11.90;;;;;;;1.61;78.43;99604.16;105844;1251;72172;-69
2023/03/03 06:32:41;;;;;;;19.90;12.60;;;;;;;1.56;78.41;99602.36;105902;1256;60498;-67
2023/03/03 06:35:09;;;;;;;17.50;11.30;;;;;;;1.52;78.55;99603.23;105798;1252;60510;-67
2023/03/03 06:37:40;;;;;;;18.90;12.30;;;;;;;1.58;78.58;99604.84;105784;1251;73999;-67
2023/03/03 06:40:09;;;;;;;21.10;12.90;;;;;;;1.64;78.48;99603.02;105807;1252;70253;-68
2023/03/03 06:42:38;;;;;;;19.40;12.10;;;;;;;1.63;78.57;99603.82;105720;1258;72925;-66
2023/03/03 06:45:07;;;;;;;24.60;13.60;;;;;;;1.62;78.43;99601.09;105719;1257;60697;-67
2023/03/03 06:47:36;;;;;;;27.20;14.50;;;;;;;1.62;78.54;99600.70;106262;1251;60767;-68
2023/03/03 06:50:05;;;;;;;18.30;12.20;;;;;;;1.73;78.56;99600.09;106101;1256;74103;-68
2023/03/03 06:52:34;;;;;;;20.60;12.60;;;;;;;1.77;78.01;99599.59;106068;1257;70408;-68
2023/03/03 06:55:10;;;;;;;18.20;12.90;;;;;;;1.69;78.13;99595.64;105766;1255;72857;-68
2023/03/03 06:57:45;;;;;;;25.70;15.80;;;;;;;1.63;78.47;99594.59;105876;1257;60542;-68
2023/03/03 07:00:26;;;;;;;22.40;15.10;;;;;;;1.65;78.77;99590.36;105697;1251;60517;-68
2023/03/03 07:03:04;;;;;;;25.60;17.00;;;;;;;1.79;78.51;99590.52;105739;1251;71679;-71
2023/03/03 07:05:34;;;;;;;23.90;15.00;;;;;;;1.87;78.28;99593.30;106143;1257;68682;-69
2023/03/03 07:08:08;;;;;;;19.30;13.30;;;;;;;1.89;78.05;99593.45;106031;1251;73002;-69
2023/03/03 07:10:42;;;;;;;;;;;;;;;1.88;77.74;99592.88;106143;1257;60501;-74
2023/03/03 07:13:31;;;;;;;;;;;;;;;1.90;77.89;99587.64;106367;1251;60523;-76
2023/03/03 07:16:01;;;;;;;23.20;13.00;;;;;;;2.05;77.40;99588.80;106320;1257;74901;-77
2023/03/03 07:18:39;;;;;;;18.50;12.30;;;;;;;2.09;76.92;99590.55;106305;1257;70573;-76
2023/03/03 07:21:15;;;;;;;17.30;12.70;;;;;;;2.07;76.77;99587.40;106302;1255;73868;-77
2023/03/03 07:23:45;;;;;;;23.20;15.00;;;;;;;2.07;76.79;99588.27;106515;1251;60482;-78
2023/03/03 07:26:15;;;;;;;22.40;14.40;;;;;;;2.07;76.74;99587.59;107430;1256;60284;-74
2023/03/03 07:28:57;;;;;;;19.00;12.70;;;;;;;2.15;76.61;99587.64;106919;1253;73889;-77
2023/03/03 07:31:30;;;;;;;18.70;12.60;;;;;;;2.30;76.15;99585.98;106312;1255;68071;-75
2023/03/03 07:33:58;;;;;;;19.90;12.40;;;;;;;2.33;75.86;99580.61;106248;1251;71630;-75
2023/03/03 07:36:28;;;;;;;19.50;12.80;;;;;;;2.38;75.44;99576.81;106270;1254;60534;-78
2023/03/03 07:38:58;;;;;;;19.50;13.30;;;;;;;2.43;75.07;99577.84;106223;1255;61109;-78
2023/03/03 07:41:26;;;;;;;19.20;13.70;;;;;;;2.48;74.61;99574.40;106302;1254;73660;-76
2023/03/03 07:44:04;;;;;;;21.70;13.90;;;;;;;2.50;74.49;99566.02;106285;1259;71550;-77
2023/03/03 07:46:49;;;;;;;21.70;13.50;;;;;;;2.58;74.07;99568.41;109027;1251;72873;-76
2023/03/03 07:49:45;;;;;;;23.10;14.70;;;;;;;2.76;73.51;99563.86;108444;1251;60270;-78
2023/03/03 07:52:23;;;;;;;18.70;13.20;;;;;;;2.83;73.14;99565.88;109419;1251;58130;-76
2023/03/03 07:54:52;;;;;;;19.00;12.20;;;;;;;2.80;72.80;99563.88;109014;1254;72648;-78
2023/03/03 07:57:36;;;;;;;22.20;14.90;;;;;;;2.77;73.00;99559.89;108298;1253;68265;-76
2023/03/03 08:00:28;;;;;;;20.80;14.00;;;;;;;2.77;72.84;99559.95;107591;1251;72567;-76
2023/03/03 08:03:00;;;;;;;25.00;14.90;;;;;;;2.73;72.80;99560.03;106724;1254;60743;-76
2023/03/03 08:05:38;;;;;;;20.90;14.20;;;;;;;2.68;72.89;99555.89;106590;1257;60441;-77
2023/03/03 08:08:26;;;;;;;27.50;17.80;;;;;;;2.76;72.94;99554.26;106566;1256;73695;-77
2023/03/03 08:10:57;;;;;;;31.50;19.80;;;;;;;2.85;72.78;99554.05;106455;1256;71426;-78
2023/03/03 08:13:36;;;;;;;23.70;16.90;;;;;;;2.89;72.84;99550.75;106678;1251;72523;-74
2023/03/03 08:16:07;;;;;;;25.40;14.10;;;;;;;2.95;72.43;99550.58;107338;1253;60970;-78
2023/03/03 08:18:47;;;;;;;22.10;14.50;;;;;;;3.03;72.08;99544.02;106474;1251;60517;-75
2023/03/03 08:21:17;;;;;;;20.80;14.00;;;;;;;3.09;71.40;99543.69;106922;1257;73616;-75
2023/03/03 08:23:48;;;;;;;19.30;13.50;;;;;;;3.11;71.18;99541.98;107145;1255;68746;-74
2023/03/03 08:26:20;;;;;;;19.10;12.80;;;;;;;3.16;70.88;99538.42;106539;1251;70580;-75
2023/03/03 08:28:51;;;;;;;18.00;12.70;;;;;;;3.22;70.64;99541.77;106192;1251;60514;-74
2023/03/03 08:31:21;;;;;;;20.90;12.80;;;;;;;3.25;69.95;99538.15;106292;1251;61953;-75
2023/03/03 08:34:08;;;;;;;14.80;10.80;;;;;;;3.25;69.52;99532.60;106265;1256;74769;-73
2023/03/03 08:36:41;;;;;;;19.20;13.40;;;;;;;3.25;69.44;99533.07;106395;1251;71527;-74
2023/03/03 08:39:09;;;;;;;18.50;12.80;;;;;;;3.28;69.53;99533.76;106298;1251;72696;-75
2023/03/03 08:41:43;;;;;;;19.30;12.60;;;;;;;3.29;69.27;99533.30;106388;1256;60497;-75
2023/03/03 08:44:12;;;;;;;26.00;14.50;;;;;;;3.29;69.28;99529.81;106403;1251;61266;-73
2023/03/03 08:46:40;;;;;;;18.20;12.30;;;;;;;3.28;69.40;99532.20;106579;1251;74360;-73
2023/03/03 08:49:12;;;;;;;17.90;11.60;;;;;;;3.25;69.31;99526.27;106814;1251;70610;-74
2023/03/03 08:51:43;;;;;;;17.50;11.40;;;;;;;3.21;69.01;99521.05;107002;1251;70134;-74
2023/03/03 08:54:12;;;;;;;16.50;11.10;;;;;;;3.15;69.11;99514.33;108061;1251;58949;-75
2023/03/03 08:56:44;;;;;;;19.00;11.60;;;;;;;3.13;69.20;99513.94;108010;1251;60364;-72
2023/03/03 08:59:13;;;;;;;21.40;12.80;;;;;;;3.13;69.12;99505.02;107632;1252;76051;-73
2023/03/03 09:01:43;;;;;;;15.60;10.50;;;;;;;3.15;69.07;99500.30;107574;1251;70463;-73
2023/03/03 09:04:14;;;;;;;18.40;11.40;;;;;;;3.23;68.81;99501.08;108354;1251;72609;-73
2023/03/03 09:06:47;;;;;;;14.60;8.80;;;;;;;3.32;68.22;99495.77;108139;1251;60271;-73
2023/03/03 09:09:16;;;;;;;13.00;8.90;;;;;;;3.38;67.26;99497.42;107959;1251;60428;-73
2023/03/03 09:11:57;;;;;;;16.40;9.80;;;;;;;3.46;67.23;99499.54;108382;1251;75100;-74
2023/03/03 09:14:27;;;;;;;15.10;9.20;;;;;;;3.56;67.03;99493.95;106661;1257;70260;-74
2023/03/03 09:16:56;;;;;;;11.20;8.70;;;;;;;3.68;66.54;99496.97;106208;1254;71870;-72
2023/03/03 09:19:29;;;;;;;15.50;9.60;;;;;;;3.78;65.79;99496.33;106299;1251;60586;-72
2023/03/03 09:22:02;;;;;;;12.90;8.90;;;;;;;3.84;65.29;99490.55;106442;1251;61467;-72
2023/03/03 09:24:31;;;;;;;12.50;8.40;;;;;;;3.90;65.24;99490.91;106097;1252;73353;-72
2023/03/03 09:27:01;;;;;;;13.00;7.30;;;;;;;3.93;64.56;99484.85;106137;1251;70696;-72
2023/03/03 09:29:36;;;;;;;11.30;7.80;;;;;;;3.98;64.41;99483.17;106067;1251;73803;-73
2023/03/03 09:32:34;;;;;;;13.40;8.10;;;;;;;4.08;64.00;99478.66;106076;1252;60516;-72
2023/03/03 09:35:33;;;;;;;14.00;8.30;;;;;;;4.22;63.98;99475.20;106177;1251;60309;-71
2023/03/03 09:38:29;;;;;;;26.20;14.30;;;;;;;4.35;63.60;99472.27;106505;1251;75078;-71
2023/03/03 09:41:29;;;;;;;27.80;17.00;;;;;;;4.47;62.33;99471.00;106232;1251;71611;-72
2023/03/03 09:44:17;;;;;;;17.30;10.80;;;;;;;4.50;61.60;99459.54;106291;1251;73567;-71
2023/03/03 09:47:10;;;;;;;16.70;9.30;;;;;;;4.48;61.36;99453.76;106288;1254;60585;-72
2023/03/03 09:49:59;;;;;;;12.30;8.00;;;;;;;4.52;61.50;99453.20;106365;1251;60970;-73
2023/03/03 09:52:41;;;;;;;12.60;8.10;;;;;;;4.61;61.11;99444.08;106529;1258;73877;-73
2023/03/03 09:55:29;;;;;;;12.30;8.00;;;;;;;4.70;60.82;99442.17;106516;1254;68751;-72
2023/03/03 09:58:16;;;;;;;13.10;7.90;;;;;;;4.79;59.89;99436.98;107510;1251;72832;-67
2023/03/03 10:01:15;;;;;;;10.40;7.80;;;;;;;4.90;59.90;99434.61;107633;1251;60414;-73
2023/03/03 10:04:15;;;;;;;14.30;9.20;;;;;;;5.09;59.26;99431.11;106340;1251;60518;-72
2023/03/03 10:07:11;;;;;;;13.50;9.00;;;;;;;5.17;58.69;99423.33;105815;1251;73756;-71
2023/03/03 10:10:01;;;;;;;12.40;7.60;;;;;;;5.35;58.70;99415.34;106052;1254;71273;-75
2023/03/03 10:12:37;;;;;;;11.60;7.80;;;;;;;5.73;58.29;99406.53;106067;1252;73620;-74
2023/03/03 10:15:58;;;;;;;9.70;7.20;;;;;;;6.11;56.76;99402.77;106074;1254;60571;-73
2023/03/03 10:18:51;;;;;;;10.30;6.10;;;;;;;6.45;55.22;99397.08;106035;1255;60444;-72
2023/03/03 10:21:36;;;;;;;11.20;6.80;;;;;;;6.66;53.86;99392.39;106066;1258;73829;-70
2023/03/03 10:24:27;;;;;;;8.80;6.70;;;;;;;6.83;53.50;99383.96;106304;1251;69016;-75
2023/03/03 10:27:32;;;;;;;12.00;7.10;;;;;;;7.02;53.54;99386.64;106409;1251;72999;-72
2023/03/03 10:30:18;;;;;;;10.70;7.80;;;;;;;7.13;52.95;99378.16;106233;1254;60446;-68
2023/03/03 10:33:11;;;;;;;10.40;8.10;;;;;;;7.19;52.57;99375.73;106253;1251;60952;-71
2023/03/03 10:35:55;;;;;;;10.30;7.20;;;;;;;7.10;51.94;99375.18;106290;1259;74894;-74
2023/03/03 10:38:44;;;;;;;11.70;8.50;;;;;;;6.84;52.51;99366.13;106182;1256;70225;-72
2023/03/03 10:41:31;;;;;;;11.10;7.80;;;;;;;6.61;52.58;99358.51;106297;1251;72167;-72
2023/03/03 10:44:34;;;;;;;10.60;7.60;;;;;;;6.37;53.22;99353.44;106136;1254;60367;-72
2023/03/03 10:47:21;;;;;;;11.20;7.80;;;;;;;6.19;53.37;99349.08;106209;1253;60427;-70
2023/03/03 10:50:16;;;;;;;10.60;7.30;;;;;;;6.08;54.03;99343.96;106009;1257;71963;-75
2023/03/03 10:53:03;;;;;;;11.50;8.30;;;;;;;6.04;54.00;99341.92;106089;1251;71467;-73
2023/03/03 10:55:39;;;;;;;13.10;8.50;;;;;;;5.94;54.20;99338.13;106122;1256;71821;-73
2023/03/03 10:58:21;;;;;;;13.50;9.10;;;;;;;5.83;54.52;99336.70;106783;1251;59389;-71
2023/03/03 11:00:56;;;;;;;11.50;7.50;;;;;;;5.76;54.71;99330.04;106939;1251;60514;-72
2023/03/03 11:03:59;;;;;;;10.10;6.20;;;;;;;5.71;54.40;99325.20;105999;1260;75041;-72
2023/03/03 11:06:39;;;;;;;11.90;7.40;;;;;;;5.62;54.23;99317.84;106143;1256;69166;-71
2023/03/03 11:09:36;;;;;;;9.40;6.10;;;;;;;5.52;54.01;99315.06;105939;1256;71972;-70
2023/03/03 11:12:32;;;;;;;9.90;6.50;;;;;;;5.48;54.31;99302.61;105712;1255;60487;-70
2023/03/03 11:15:17;;;;;;;10.10;6.20;;;;;;;5.52;54.36;99302.80;105812;1257;60685;-70
2023/03/03 11:18:25;;;;;;;9.20;6.40;;;;;;;5.57;54.02;99300.72;105839;1252;75904;-70
2023/03/03 11:21:09;;;;;;;9.30;5.60;;;;;;;5.69;54.38;99292.86;105582;1251;71327;-70
2023/03/03 11:24:00;;;;;;;9.10;6.30;;;;;;;5.92;53.92;99291.39;105953;1254;71504;-70
2023/03/03 11:27:00;;;;;;;9.20;6.60;;;;;;;6.19;53.10;99286.52;105896;1254;60473;-70
2023/03/03 11:29:55;;;;;;;9.20;5.80;;;;;;;6.45;52.76;99283.59;105780;1254;60437;-71
2023/03/03 11:32:46;;;;;;;7.50;5.70;;;;;;;6.80;52.50;99284.33;105863;1256;72762;-71
2023/03/03 11:35:34;;;;;;;13.00;6.50;;;;;;;7.22;51.65;99280.75;105836;1254;70937;-69
2023/03/03 11:38:10;;;;;;;7.30;5.70;;;;;;;7.48;51.12;99274.73;105612;1256;72033;-72
2023/03/03 11:40:56;;;;;;;9.80;5.70;;;;;;;7.48;50.03;99279.96;105979;1251;60545;-67
2023/03/03 11:43:27;;;;;;;8.50;5.50;;;;;;;7.16;50.57;99276.63;105715;1251;60613;-70
2023/03/03 11:46:23;;;;;;;7.20;5.80;;;;;;;6.86;51.04;99274.34;106092;1251;72343;-70
2023/03/03 11:52:09;;;;;;;7.90;5.30;;;;;;;6.59;51.68;99266.53;102822;1293;600735;-70
2023/03/03 11:55:03;;;;;;;7.00;3.50;;;;;;;6.48;51.22;99267.78;104736;1267;59856;-69
2023/03/03 11:57:34;;;;;;;6.10;3.60;;;;;;;6.38;51.07;99264.44;105246;1267;61310;-67
2023/03/03 12:00:19;;;;;;;4.20;2.90;;;;;;;6.29;51.46;99263.35;105055;1269;71033;-69
2023/03/03 12:03:11;;;;;;;5.80;3.60;;;;;;;6.25;51.11;99267.95;105005;1268;70008;-68